Henry, Virginia
Current Conditions -  °F | °C
As of 1:35 AM on Wednesday 26 Nov 2014 (Local Time) from KMTV Reporting Station
Light Rain Light Rain  
Wind Chill: 39°   Ceiling: 7000
Heat Index: 44°   Visibility: 10mi
Dew Point: 43°   Wind: 8mph
Humidity: 97%   Direction: 340°NNW
Pressure: 30.05"   Gusts: NA
Location:  36.83°N, 79.99°W
Report Text: KMTV 260635Z AUTO 34007KT 10SM -RA OVC070 07/06 A3005 RMK AO2 P0002 T00650061
Loading
Personal Weather Stations






























Interactive Weather Map New forecast layout! Learn more

10-Day Weather Forecast

Advertisements
Track Severe Weather on mobile